sensor_id;sensor_type;location;lat;lon;timestamp;temperature;humidity
11221;DHT22;8517;53.546;10.104;2023-10-31T00:00:50;14.10;99.90
11221;DHT22;8517;53.546;10.104;2023-10-31T00:03:17;14.10;99.90
11221;DHT22;8517;53.546;10.104;2023-10-31T00:05:45;14.10;99.90
11221;DHT22;8517;53.546;10.104;2023-10-31T00:08:12;14.10;99.90
11221;DHT22;8517;53.546;10.104;2023-10-31T00:10:39;14.20;99.90
11221;DHT22;8517;53.546;10.104;2023-10-31T00:13:10;14.20;99.90
11221;DHT22;8517;53.546;10.104;2023-10-31T00:15:36;14.20;99.90
11221;DHT22;8517;53.546;10.104;2023-10-31T00:18:04;14.10;99.90
11221;DHT22;8517;53.546;10.104;2023-10-31T00:20:30;14.10;99.90
11221;DHT22;8517;53.546;10.104;2023-10-31T00:22:58;14.20;99.90
11221;DHT22;8517;53.546;10.104;2023-10-31T00:25:25;14.20;99.90
11221;DHT22;8517;53.546;10.104;2023-10-31T00:27:52;14.20;99.90
11221;DHT22;8517;53.546;10.104;2023-10-31T00:30:19;14.20;99.90
11221;DHT22;8517;53.546;10.104;2023-10-31T00:32:46;14.30;99.90
11221;DHT22;8517;53.546;10.104;2023-10-31T00:35:13;14.30;99.90
11221;DHT22;8517;53.546;10.104;2023-10-31T00:37:40;14.30;99.90
11221;DHT22;8517;53.546;10.104;2023-10-31T00:40:09;14.30;99.90
11221;DHT22;8517;53.546;10.104;2023-10-31T00:42:37;14.40;99.90
11221;DHT22;8517;53.546;10.104;2023-10-31T00:45:05;14.40;99.90
11221;DHT22;8517;53.546;10.104;2023-10-31T00:47:32;14.40;99.90
11221;DHT22;8517;53.546;10.104;2023-10-31T00:49:59;14.50;99.90
11221;DHT22;8517;53.546;10.104;2023-10-31T00:52:25;14.50;99.90
11221;DHT22;8517;53.546;10.104;2023-10-31T00:54:52;14.50;99.90
11221;DHT22;8517;53.546;10.104;2023-10-31T00:57:20;14.50;99.90
11221;DHT22;8517;53.546;10.104;2023-10-31T00:59:47;14.50;99.90
11221;DHT22;8517;53.546;10.104;2023-10-31T01:02:14;14.50;99.90
11221;DHT22;8517;53.546;10.104;2023-10-31T01:04:41;14.50;99.90
11221;DHT22;8517;53.546;10.104;2023-10-31T01:07:08;14.50;99.90
11221;DHT22;8517;53.546;10.104;2023-10-31T01:09:37;14.50;99.90
11221;DHT22;8517;53.546;10.104;2023-10-31T01:12:05;14.50;99.90
11221;DHT22;8517;53.546;10.104;2023-10-31T01:14:33;14.50;99.90
11221;DHT22;8517;53.546;10.104;2023-10-31T01:17:00;14.50;99.90
11221;DHT22;8517;53.546;10.104;2023-10-31T01:19:27;14.50;99.90
11221;DHT22;8517;53.546;10.104;2023-10-31T01:21:54;14.50;99.90
11221;DHT22;8517;53.546;10.104;2023-10-31T01:24:20;14.50;99.90
11221;DHT22;8517;53.546;10.104;2023-10-31T01:26:48;14.50;99.90
11221;DHT22;8517;53.546;10.104;2023-10-31T01:29:15;14.40;99.90
11221;DHT22;8517;53.546;10.104;2023-10-31T01:31:43;14.40;99.90
11221;DHT22;8517;53.546;10.104;2023-10-31T01:34:10;14.40;99.90
11221;DHT22;8517;53.546;10.104;2023-10-31T01:36:37;14.40;99.90
11221;DHT22;8517;53.546;10.104;2023-10-31T01:39:04;14.40;99.90
11221;DHT22;8517;53.546;10.104;2023-10-31T01:41:30;14.40;99.90
11221;DHT22;8517;53.546;10.104;2023-10-31T01:43:57;14.40;99.90
11221;DHT22;8517;53.546;10.104;2023-10-31T01:46:24;14.40;99.90
11221;DHT22;8517;53.546;10.104;2023-10-31T01:48:53;14.40;99.90
11221;DHT22;8517;53.546;10.104;2023-10-31T01:51:20;14.40;99.90
11221;DHT22;8517;53.546;10.104;2023-10-31T01:53:47;14.40;99.90
11221;DHT22;8517;53.546;10.104;2023-10-31T01:56:14;14.40;99.90
11221;DHT22;8517;53.546;10.104;2023-10-31T01:58:41;14.40;99.90
11221;DHT22;8517;53.546;10.104;2023-10-31T02:01:09;14.40;99.90
11221;DHT22;8517;53.546;10.104;2023-10-31T02:03:35;14.40;99.90
11221;DHT22;8517;53.546;10.104;2023-10-31T02:06:05;14.40;99.90
11221;DHT22;8517;53.546;10.104;2023-10-31T02:08:32;14.40;99.90
11221;DHT22;8517;53.546;10.104;2023-10-31T02:10:59;14.40;99.90
11221;DHT22;8517;53.546;10.104;2023-10-31T02:13:26;14.40;99.90
11221;DHT22;8517;53.546;10.104;2023-10-31T02:15:52;14.40;99.90
11221;DHT22;8517;53.546;10.104;2023-10-31T02:18:19;14.40;99.90
11221;DHT22;8517;53.546;10.104;2023-10-31T02:20:46;14.40;99.90
11221;DHT22;8517;53.546;10.104;2023-10-31T02:23:16;14.40;99.90
11221;DHT22;8517;53.546;10.104;2023-10-31T02:25:43;14.40;99.90
11221;DHT22;8517;53.546;10.104;2023-10-31T02:28:10;14.40;99.90
11221;DHT22;8517;53.546;10.104;2023-10-31T02:30:37;14.30;99.90
11221;DHT22;8517;53.546;10.104;2023-10-31T02:33:04;14.30;99.90
11221;DHT22;8517;53.546;10.104;2023-10-31T02:35:30;14.30;99.90
11221;DHT22;8517;53.546;10.104;2023-10-31T02:37:58;14.30;99.90
11221;DHT22;8517;53.546;10.104;2023-10-31T02:40:26;14.30;99.90
11221;DHT22;8517;53.546;10.104;2023-10-31T02:42:52;14.30;99.90
11221;DHT22;8517;53.546;10.104;2023-10-31T02:45:19;14.30;99.90
11221;DHT22;8517;53.546;10.104;2023-10-31T02:47:46;14.30;99.90
11221;DHT22;8517;53.546;10.104;2023-10-31T02:50:13;14.30;99.90
11221;DHT22;8517;53.546;10.104;2023-10-31T02:52:40;14.30;99.90
11221;DHT22;8517;53.546;10.104;2023-10-31T02:55:07;14.30;99.90
11221;DHT22;8517;53.546;10.104;2023-10-31T02:57:36;14.30;99.90
11221;DHT22;8517;53.546;10.104;2023-10-31T03:00:03;14.30;99.90
11221;DHT22;8517;53.546;10.104;2023-10-31T03:02:30;14.30;99.90
11221;DHT22;8517;53.546;10.104;2023-10-31T03:04:57;14.30;99.90
11221;DHT22;8517;53.546;10.104;2023-10-31T03:07:24;14.30;99.90
11221;DHT22;8517;53.546;10.104;2023-10-31T03:09:50;14.30;99.90
11221;DHT22;8517;53.546;10.104;2023-10-31T03:12:17;14.30;99.90
11221;DHT22;8517;53.546;10.104;2023-10-31T03:14:45;14.20;99.90
11221;DHT22;8517;53.546;10.104;2023-10-31T03:17:12;14.30;99.90
11221;DHT22;8517;53.546;10.104;2023-10-31T03:19:39;14.20;99.90
11221;DHT22;8517;53.546;10.104;2023-10-31T03:22:06;14.30;99.90
11221;DHT22;8517;53.546;10.104;2023-10-31T03:24:32;14.30;99.90
11221;DHT22;8517;53.546;10.104;2023-10-31T03:26:59;14.30;99.90
11221;DHT22;8517;53.546;10.104;2023-10-31T03:29:26;14.20;99.90
11221;DHT22;8517;53.546;10.104;2023-10-31T03:31:54;14.30;99.90
11221;DHT22;8517;53.546;10.104;2023-10-31T03:34:21;14.30;99.90
11221;DHT22;8517;53.546;10.104;2023-10-31T03:36:47;14.30;99.90
11221;DHT22;8517;53.546;10.104;2023-10-31T03:39:14;14.30;99.90
11221;DHT22;8517;53.546;10.104;2023-10-31T03:41:41;14.20;99.90
11221;DHT22;8517;53.546;10.104;2023-10-31T03:44:08;14.20;99.90
11221;DHT22;8517;53.546;10.104;2023-10-31T03:46:35;14.20;99.90
11221;DHT22;8517;53.546;10.104;2023-10-31T03:49:03;14.20;99.90
11221;DHT22;8517;53.546;10.104;2023-10-31T03:51:33;14.20;99.90
11221;DHT22;8517;53.546;10.104;2023-10-31T03:53:59;14.30;99.90
11221;DHT22;8517;53.546;10.104;2023-10-31T03:56:26;14.20;99.90
11221;DHT22;8517;53.546;10.104;2023-10-31T03:58:53;14.20;99.90
11221;DHT22;8517;53.546;10.104;2023-10-31T04:01:20;14.20;99.90
11221;DHT22;8517;53.546;10.104;2023-10-31T04:03:46;14.30;99.90
11221;DHT22;8517;53.546;10.104;2023-10-31T04:06:14;14.30;99.90
11221;DHT22;8517;53.546;10.104;2023-10-31T04:08:41;14.30;99.90
11221;DHT22;8517;53.546;10.104;2023-10-31T04:11:08;14.30;99.90
11221;DHT22;8517;53.546;10.104;2023-10-31T04:13:35;14.30;99.90
11221;DHT22;8517;53.546;10.104;2023-10-31T04:16:02;14.30;99.90
11221;DHT22;8517;53.546;10.104;2023-10-31T04:18:29;14.30;99.90
11221;DHT22;8517;53.546;10.104;2023-10-31T04:20:56;14.30;99.90
11221;DHT22;8517;53.546;10.104;2023-10-31T04:23:24;14.30;99.90
11221;DHT22;8517;53.546;10.104;2023-10-31T04:25:51;14.30;99.90
11221;DHT22;8517;53.546;10.104;2023-10-31T04:28:18;14.40;99.90
11221;DHT22;8517;53.546;10.104;2023-10-31T04:30:45;14.30;99.90
11221;DHT22;8517;53.546;10.104;2023-10-31T04:33:12;14.30;99.90
11221;DHT22;8517;53.546;10.104;2023-10-31T04:35:39;14.30;99.90
11221;DHT22;8517;53.546;10.104;2023-10-31T04:38:06;14.40;99.90
11221;DHT22;8517;53.546;10.104;2023-10-31T04:40:34;14.40;99.90
11221;DHT22;8517;53.546;10.104;2023-10-31T04:43:01;14.40;99.90
11221;DHT22;8517;53.546;10.104;2023-10-31T04:45:28;14.40;99.90
11221;DHT22;8517;53.546;10.104;2023-10-31T04:47:55;14.40;99.90
11221;DHT22;8517;53.546;10.104;2023-10-31T04:50:22;14.40;99.90
11221;DHT22;8517;53.546;10.104;2023-10-31T04:52:48;14.50;99.90
11221;DHT22;8517;53.546;10.104;2023-10-31T04:55:15;14.50;99.90
11221;DHT22;8517;53.546;10.104;2023-10-31T04:57:43;14.50;99.90
11221;DHT22;8517;53.546;10.104;2023-10-31T05:00:11;14.50;99.90
11221;DHT22;8517;53.546;10.104;2023-10-31T05:02:38;14.60;99.90
11221;DHT22;8517;53.546;10.104;2023-10-31T05:05:05;14.60;99.90
11221;DHT22;8517;53.546;10.104;2023-10-31T05:07:32;14.60;99.90
11221;DHT22;8517;53.546;10.104;2023-10-31T05:09:58;14.70;99.90
11221;DHT22;8517;53.546;10.104;2023-10-31T05:12:26;14.70;99.90
11221;DHT22;8517;53.546;10.104;2023-10-31T05:14:54;14.70;99.90
11221;DHT22;8517;53.546;10.104;2023-10-31T05:17:21;14.70;99.90
11221;DHT22;8517;53.546;10.104;2023-10-31T05:19:47;14.70;99.90
11221;DHT22;8517;53.546;10.104;2023-10-31T05:22:15;14.70;99.90
11221;DHT22;8517;53.546;10.104;2023-10-31T05:24:42;14.70;99.90
11221;DHT22;8517;53.546;10.104;2023-10-31T05:27:08;14.70;99.90
11221;DHT22;8517;53.546;10.104;2023-10-31T05:29:35;14.80;99.90
11221;DHT22;8517;53.546;10.104;2023-10-31T05:32:04;14.80;99.90
11221;DHT22;8517;53.546;10.104;2023-10-31T05:34:31;14.80;99.90
11221;DHT22;8517;53.546;10.104;2023-10-31T05:36:58;14.80;99.90
11221;DHT22;8517;53.546;10.104;2023-10-31T05:39:25;14.80;99.90
11221;DHT22;8517;53.546;10.104;2023-10-31T05:41:52;14.80;99.90
11221;DHT22;8517;53.546;10.104;2023-10-31T05:44:18;14.90;99.90
11221;DHT22;8517;53.546;10.104;2023-10-31T05:46:45;14.90;99.90
11221;DHT22;8517;53.546;10.104;2023-10-31T05:49:13;14.90;99.90
11221;DHT22;8517;53.546;10.104;2023-10-31T05:51:40;14.90;99.90
11221;DHT22;8517;53.546;10.104;2023-10-31T05:54:07;15.00;99.90
11221;DHT22;8517;53.546;10.104;2023-10-31T05:56:34;15.00;99.90
11221;DHT22;8517;53.546;10.104;2023-10-31T05:59:01;15.00;99.90
11221;DHT22;8517;53.546;10.104;2023-10-31T06:01:27;15.00;99.90
11221;DHT22;8517;53.546;10.104;2023-10-31T06:03:54;15.10;99.90
11221;DHT22;8517;53.546;10.104;2023-10-31T06:06:22;15.00;99.90
11221;DHT22;8517;53.546;10.104;2023-10-31T06:08:49;15.10;99.90
11221;DHT22;8517;53.546;10.104;2023-10-31T06:11:16;15.10;99.90
11221;DHT22;8517;53.546;10.104;2023-10-31T06:13:42;15.10;99.90
11221;DHT22;8517;53.546;10.104;2023-10-31T06:16:09;15.10;99.90
11221;DHT22;8517;53.546;10.104;2023-10-31T06:18:38;15.10;99.90
11221;DHT22;8517;53.546;10.104;2023-10-31T06:21:05;15.10;99.90
11221;DHT22;8517;53.546;10.104;2023-10-31T06:23:34;15.10;99.90
11221;DHT22;8517;53.546;10.104;2023-10-31T06:26:01;15.00;99.90
11221;DHT22;8517;53.546;10.104;2023-10-31T06:28:28;15.10;99.90
11221;DHT22;8517;53.546;10.104;2023-10-31T06:30:55;15.00;99.90
11221;DHT22;8517;53.546;10.104;2023-10-31T06:33:22;15.00;99.90
11221;DHT22;8517;53.546;10.104;2023-10-31T06:35:48;14.90;99.90
11221;DHT22;8517;53.546;10.104;2023-10-31T06:38:17;14.90;99.90
11221;DHT22;8517;53.546;10.104;2023-10-31T06:40:45;14.90;99.90
11221;DHT22;8517;53.546;10.104;2023-10-31T06:43:12;14.90;99.90
11221;DHT22;8517;53.546;10.104;2023-10-31T06:45:39;14.90;99.90
11221;DHT22;8517;53.546;10.104;2023-10-31T06:48:05;14.90;99.90
11221;DHT22;8517;53.546;10.104;2023-10-31T06:50:34;14.80;99.90
11221;DHT22;8517;53.546;10.104;2023-10-31T06:53:01;14.80;99.90
11221;DHT22;8517;53.546;10.104;2023-10-31T06:55:28;14.80;99.90
11221;DHT22;8517;53.546;10.104;2023-10-31T06:57:56;14.70;99.90
11221;DHT22;8517;53.546;10.104;2023-10-31T07:00:23;14.70;99.90
11221;DHT22;8517;53.546;10.104;2023-10-31T07:02:59;14.70;99.90
11221;DHT22;8517;53.546;10.104;2023-10-31T07:05:30;14.70;99.90
11221;DHT22;8517;53.546;10.104;2023-10-31T07:07:57;14.70;99.90
11221;DHT22;8517;53.546;10.104;2023-10-31T07:10:24;14.70;99.90
11221;DHT22;8517;53.546;10.104;2023-10-31T07:12:51;14.70;99.90
11221;DHT22;8517;53.546;10.104;2023-10-31T07:15:19;14.70;99.90
11221;DHT22;8517;53.546;10.104;2023-10-31T07:17:46;14.70;99.90
11221;DHT22;8517;53.546;10.104;2023-10-31T07:20:13;14.60;99.90
11221;DHT22;8517;53.546;10.104;2023-10-31T07:22:40;14.70;99.90
11221;DHT22;8517;53.546;10.104;2023-10-31T07:25:07;14.70;99.90
11221;DHT22;8517;53.546;10.104;2023-10-31T07:27:33;14.60;99.90
11221;DHT22;8517;53.546;10.104;2023-10-31T07:30:01;14.60;99.90
11221;DHT22;8517;53.546;10.104;2023-10-31T07:32:30;14.60;99.90
11221;DHT22;8517;53.546;10.104;2023-10-31T07:34:57;14.60;99.90
11221;DHT22;8517;53.546;10.104;2023-10-31T07:37:24;14.60;99.90
11221;DHT22;8517;53.546;10.104;2023-10-31T07:39:51;14.60;99.90
11221;DHT22;8517;53.546;10.104;2023-10-31T07:42:18;14.60;99.90
11221;DHT22;8517;53.546;10.104;2023-10-31T07:44:45;14.60;99.90
11221;DHT22;8517;53.546;10.104;2023-10-31T07:47:11;14.50;99.90
11221;DHT22;8517;53.546;10.104;2023-10-31T07:49:40;14.50;99.90
11221;DHT22;8517;53.546;10.104;2023-10-31T07:52:07;14.50;99.90
11221;DHT22;8517;53.546;10.104;2023-10-31T07:54:33;14.50;99.90
11221;DHT22;8517;53.546;10.104;2023-10-31T07:57:01;14.50;99.90
11221;DHT22;8517;53.546;10.104;2023-10-31T07:59:27;14.40;99.90
11221;DHT22;8517;53.546;10.104;2023-10-31T08:01:54;14.40;99.90
11221;DHT22;8517;53.546;10.104;2023-10-31T08:04:21;14.30;99.90
11221;DHT22;8517;53.546;10.104;2023-10-31T08:06:49;14.30;99.90
11221;DHT22;8517;53.546;10.104;2023-10-31T08:09:16;14.20;99.90
11221;DHT22;8517;53.546;10.104;2023-10-31T08:11:43;14.20;99.90
11221;DHT22;8517;53.546;10.104;2023-10-31T08:14:09;14.10;99.90
11221;DHT22;8517;53.546;10.104;2023-10-31T08:16:36;14.10;99.90
11221;DHT22;8517;53.546;10.104;2023-10-31T08:19:03;14.00;99.90
11221;DHT22;8517;53.546;10.104;2023-10-31T08:21:30;14.00;99.90
11221;DHT22;8517;53.546;10.104;2023-10-31T08:24:01;14.00;99.90
11221;DHT22;8517;53.546;10.104;2023-10-31T08:26:29;13.90;99.90
11221;DHT22;8517;53.546;10.104;2023-10-31T08:28:56;13.80;99.90
11221;DHT22;8517;53.546;10.104;2023-10-31T08:31:22;13.90;99.90
11221;DHT22;8517;53.546;10.104;2023-10-31T08:33:49;13.80;99.90
11221;DHT22;8517;53.546;10.104;2023-10-31T08:36:16;13.80;99.90
11221;DHT22;8517;53.546;10.104;2023-10-31T08:38:43;13.80;99.90
11221;DHT22;8517;53.546;10.104;2023-10-31T08:41:11;13.70;99.90
11221;DHT22;8517;53.546;10.104;2023-10-31T08:43:44;13.70;99.90
11221;DHT22;8517;53.546;10.104;2023-10-31T08:46:11;13.70;99.90
11221;DHT22;8517;53.546;10.104;2023-10-31T08:48:37;13.60;99.90
11221;DHT22;8517;53.546;10.104;2023-10-31T08:51:04;13.60;99.90
11221;DHT22;8517;53.546;10.104;2023-10-31T08:53:31;13.60;99.90
11221;DHT22;8517;53.546;10.104;2023-10-31T08:55:58;13.50;99.90
11221;DHT22;8517;53.546;10.104;2023-10-31T08:58:27;13.50;99.90
11221;DHT22;8517;53.546;10.104;2023-10-31T09:00:55;13.50;99.90
11221;DHT22;8517;53.546;10.104;2023-10-31T09:03:22;13.50;99.90
11221;DHT22;8517;53.546;10.104;2023-10-31T09:05:48;13.60;99.90
11221;DHT22;8517;53.546;10.104;2023-10-31T09:08:15;13.60;99.90
11221;DHT22;8517;53.546;10.104;2023-10-31T09:10:43;13.60;99.90
11221;DHT22;8517;53.546;10.104;2023-10-31T09:13:12;13.60;99.90
11221;DHT22;8517;53.546;10.104;2023-10-31T09:15:40;13.60;99.90
11221;DHT22;8517;53.546;10.104;2023-10-31T09:18:07;13.60;99.90
11221;DHT22;8517;53.546;10.104;2023-10-31T09:20:33;13.60;99.90
11221;DHT22;8517;53.546;10.104;2023-10-31T09:23:00;13.70;99.90
11221;DHT22;8517;53.546;10.104;2023-10-31T09:25:27;13.70;99.90
11221;DHT22;8517;53.546;10.104;2023-10-31T09:27:55;13.70;99.90
11221;DHT22;8517;53.546;10.104;2023-10-31T09:30:24;13.80;99.90
11221;DHT22;8517;53.546;10.104;2023-10-31T09:32:52;13.80;99.90
11221;DHT22;8517;53.546;10.104;2023-10-31T09:35:19;13.80;99.90
11221;DHT22;8517;53.546;10.104;2023-10-31T09:37:46;13.80;99.90
11221;DHT22;8517;53.546;10.104;2023-10-31T09:40:14;13.90;99.90
11221;DHT22;8517;53.546;10.104;2023-10-31T09:42:41;13.80;99.90
11221;DHT22;8517;53.546;10.104;2023-10-31T09:45:08;13.80;99.90
11221;DHT22;8517;53.546;10.104;2023-10-31T09:47:35;13.80;99.90
11221;DHT22;8517;53.546;10.104;2023-10-31T09:50:04;13.90;99.90
11221;DHT22;8517;53.546;10.104;2023-10-31T09:52:32;13.80;99.90
11221;DHT22;8517;53.546;10.104;2023-10-31T09:54:59;13.80;99.90
11221;DHT22;8517;53.546;10.104;2023-10-31T09:57:26;13.80;99.90
11221;DHT22;8517;53.546;10.104;2023-10-31T09:59:53;13.70;99.90
11221;DHT22;8517;53.546;10.104;2023-10-31T10:02:20;13.70;99.90
11221;DHT22;8517;53.546;10.104;2023-10-31T10:04:48;13.60;99.90
11221;DHT22;8517;53.546;10.104;2023-10-31T10:07:19;13.60;99.90
11221;DHT22;8517;53.546;10.104;2023-10-31T10:09:46;13.50;99.90
11221;DHT22;8517;53.546;10.104;2023-10-31T10:12:13;13.40;99.90
11221;DHT22;8517;53.546;10.104;2023-10-31T10:14:41;13.30;99.90
11221;DHT22;8517;53.546;10.104;2023-10-31T10:17:14;13.30;99.90
11221;DHT22;8517;53.546;10.104;2023-10-31T10:19:42;13.20;99.90
11221;DHT22;8517;53.546;10.104;2023-10-31T10:22:08;13.10;99.90
11221;DHT22;8517;53.546;10.104;2023-10-31T10:24:39;13.00;99.90
11221;DHT22;8517;53.546;10.104;2023-10-31T10:27:06;13.00;99.90
11221;DHT22;8517;53.546;10.104;2023-10-31T10:29:34;13.00;99.90
11221;DHT22;8517;53.546;10.104;2023-10-31T10:32:00;13.00;99.90
11221;DHT22;8517;53.546;10.104;2023-10-31T10:34:27;12.90;99.90
11221;DHT22;8517;53.546;10.104;2023-10-31T10:36:55;12.90;99.90
11221;DHT22;8517;53.546;10.104;2023-10-31T10:39:23;12.90;99.90
11221;DHT22;8517;53.546;10.104;2023-10-31T10:41:54;12.90;99.90
11221;DHT22;8517;53.546;10.104;2023-10-31T10:44:31;12.90;99.90
11221;DHT22;8517;53.546;10.104;2023-10-31T10:46:58;12.80;99.90
11221;DHT22;8517;53.546;10.104;2023-10-31T10:49:27;12.80;99.90
11221;DHT22;8517;53.546;10.104;2023-10-31T10:51:59;12.80;99.90
11221;DHT22;8517;53.546;10.104;2023-10-31T10:54:33;12.80;99.90
11221;DHT22;8517;53.546;10.104;2023-10-31T10:57:08;12.90;99.90
11221;DHT22;8517;53.546;10.104;2023-10-31T10:59:41;12.90;99.90
11221;DHT22;8517;53.546;10.104;2023-10-31T11:02:09;12.90;99.90
11221;DHT22;8517;53.546;10.104;2023-10-31T11:04:37;12.90;99.90
11221;DHT22;8517;53.546;10.104;2023-10-31T11:07:05;13.00;99.90
11221;DHT22;8517;53.546;10.104;2023-10-31T11:09:33;13.00;99.90
11221;DHT22;8517;53.546;10.104;2023-10-31T11:12:00;13.00;99.90
11221;DHT22;8517;53.546;10.104;2023-10-31T11:14:30;13.00;99.90
11221;DHT22;8517;53.546;10.104;2023-10-31T11:17:01;13.00;99.90
11221;DHT22;8517;53.546;10.104;2023-10-31T11:19:30;13.00;99.90
11221;DHT22;8517;53.546;10.104;2023-10-31T11:22:00;13.00;99.90
11221;DHT22;8517;53.546;10.104;2023-10-31T11:24:28;13.10;99.90
11221;DHT22;8517;53.546;10.104;2023-10-31T11:26:59;13.10;99.90
11221;DHT22;8517;53.546;10.104;2023-10-31T11:29:26;13.10;99.90
11221;DHT22;8517;53.546;10.104;2023-10-31T11:31:55;13.10;99.90
11221;DHT22;8517;53.546;10.104;2023-10-31T11:34:23;13.20;99.90
11221;DHT22;8517;53.546;10.104;2023-10-31T11:36:51;13.20;99.90
11221;DHT22;8517;53.546;10.104;2023-10-31T11:39:20;13.20;99.90
11221;DHT22;8517;53.546;10.104;2023-10-31T11:41:53;13.20;99.90
11221;DHT22;8517;53.546;10.104;2023-10-31T11:44:22;13.20;99.90
11221;DHT22;8517;53.546;10.104;2023-10-31T11:46:50;13.20;99.90
11221;DHT22;8517;53.546;10.104;2023-10-31T11:49:48;13.30;99.90
11221;DHT22;8517;53.546;10.104;2023-10-31T11:52:15;13.30;99.90
11221;DHT22;8517;53.546;10.104;2023-10-31T11:54:42;13.30;99.90
11221;DHT22;8517;53.546;10.104;2023-10-31T11:57:09;13.40;99.90
11221;DHT22;8517;53.546;10.104;2023-10-31T11:59:36;13.40;99.90
11221;DHT22;8517;53.546;10.104;2023-10-31T12:02:12;13.40;99.90
11221;DHT22;8517;53.546;10.104;2023-10-31T12:04:41;13.50;99.90
11221;DHT22;8517;53.546;10.104;2023-10-31T12:07:08;13.60;99.90
11221;DHT22;8517;53.546;10.104;2023-10-31T12:09:46;13.60;99.90
11221;DHT22;8517;53.546;10.104;2023-10-31T12:12:13;13.70;99.90
11221;DHT22;8517;53.546;10.104;2023-10-31T12:14:40;13.70;99.90
11221;DHT22;8517;53.546;10.104;2023-10-31T12:17:07;13.80;99.90
11221;DHT22;8517;53.546;10.104;2023-10-31T12:19:36;13.80;99.90
11221;DHT22;8517;53.546;10.104;2023-10-31T12:22:12;13.80;99.90
11221;DHT22;8517;53.546;10.104;2023-10-31T12:24:40;13.80;99.90
11221;DHT22;8517;53.546;10.104;2023-10-31T12:27:06;13.80;99.90
11221;DHT22;8517;53.546;10.104;2023-10-31T12:29:33;13.80;99.90
11221;DHT22;8517;53.546;10.104;2023-10-31T12:32:00;13.90;99.90
11221;DHT22;8517;53.546;10.104;2023-10-31T12:34:28;13.90;99.90
11221;DHT22;8517;53.546;10.104;2023-10-31T12:36:55;13.90;99.90
11221;DHT22;8517;53.546;10.104;2023-10-31T12:39:26;13.90;99.90
11221;DHT22;8517;53.546;10.104;2023-10-31T12:41:54;13.90;99.90
11221;DHT22;8517;53.546;10.104;2023-10-31T12:44:24;13.90;99.90
11221;DHT22;8517;53.546;10.104;2023-10-31T12:46:52;13.90;99.90
11221;DHT22;8517;53.546;10.104;2023-10-31T12:49:20;13.90;99.90
11221;DHT22;8517;53.546;10.104;2023-10-31T12:51:58;13.90;99.90
11221;DHT22;8517;53.546;10.104;2023-10-31T12:54:30;13.90;99.90
11221;DHT22;8517;53.546;10.104;2023-10-31T12:57:00;13.90;99.90
11221;DHT22;8517;53.546;10.104;2023-10-31T12:59:28;13.90;99.90
11221;DHT22;8517;53.546;10.104;2023-10-31T13:01:54;13.90;99.90
11221;DHT22;8517;53.546;10.104;2023-10-31T13:04:25;14.00;99.90
11221;DHT22;8517;53.546;10.104;2023-10-31T13:07:02;14.00;99.90
11221;DHT22;8517;53.546;10.104;2023-10-31T13:09:31;14.00;99.90
11221;DHT22;8517;53.546;10.104;2023-10-31T13:12:01;14.00;99.90
11221;DHT22;8517;53.546;10.104;2023-10-31T13:14:28;14.00;99.90
11221;DHT22;8517;53.546;10.104;2023-10-31T13:16:55;13.90;99.90
11221;DHT22;8517;53.546;10.104;2023-10-31T13:19:22;14.00;99.90
11221;DHT22;8517;53.546;10.104;2023-10-31T13:21:49;13.90;99.90
11221;DHT22;8517;53.546;10.104;2023-10-31T13:24:16;14.00;99.90
11221;DHT22;8517;53.546;10.104;2023-10-31T13:26:46;14.00;99.90
11221;DHT22;8517;53.546;10.104;2023-10-31T13:29:16;14.00;99.90
11221;DHT22;8517;53.546;10.104;2023-10-31T13:31:43;14.00;99.90
11221;DHT22;8517;53.546;10.104;2023-10-31T13:34:10;14.10;99.90
11221;DHT22;8517;53.546;10.104;2023-10-31T13:36:37;14.00;99.90
11221;DHT22;8517;53.546;10.104;2023-10-31T13:39:04;14.00;99.90
11221;DHT22;8517;53.546;10.104;2023-10-31T13:41:31;14.00;99.90
11221;DHT22;8517;53.546;10.104;2023-10-31T13:43:59;14.00;99.90
11221;DHT22;8517;53.546;10.104;2023-10-31T13:46:28;13.90;99.90
11221;DHT22;8517;53.546;10.104;2023-10-31T13:48:55;13.90;99.90
11221;DHT22;8517;53.546;10.104;2023-10-31T13:51:22;13.90;99.90
11221;DHT22;8517;53.546;10.104;2023-10-31T13:53:49;13.80;99.90
11221;DHT22;8517;53.546;10.104;2023-10-31T13:56:15;13.80;99.90
11221;DHT22;8517;53.546;10.104;2023-10-31T13:58:42;13.70;99.90
11221;DHT22;8517;53.546;10.104;2023-10-31T14:01:10;13.80;99.90
11221;DHT22;8517;53.546;10.104;2023-10-31T14:03:38;13.70;99.90
11221;DHT22;8517;53.546;10.104;2023-10-31T14:06:05;13.60;99.90
11221;DHT22;8517;53.546;10.104;2023-10-31T14:08:32;13.60;99.90
11221;DHT22;8517;53.546;10.104;2023-10-31T14:10:59;13.50;99.90
11221;DHT22;8517;53.546;10.104;2023-10-31T14:13:26;13.40;99.90
11221;DHT22;8517;53.546;10.104;2023-10-31T14:15:52;13.30;99.90
11221;DHT22;8517;53.546;10.104;2023-10-31T14:18:21;13.30;99.90
11221;DHT22;8517;53.546;10.104;2023-10-31T14:20:48;13.10;99.90
11221;DHT22;8517;53.546;10.104;2023-10-31T14:23:15;13.00;99.90
11221;DHT22;8517;53.546;10.104;2023-10-31T14:25:42;12.90;99.90
11221;DHT22;8517;53.546;10.104;2023-10-31T14:28:09;12.80;99.90
11221;DHT22;8517;53.546;10.104;2023-10-31T14:30:35;12.80;99.90
11221;DHT22;8517;53.546;10.104;2023-10-31T14:33:02;12.70;99.90
11221;DHT22;8517;53.546;10.104;2023-10-31T14:35:31;12.60;99.90
11221;DHT22;8517;53.546;10.104;2023-10-31T14:37:58;12.60;99.90
11221;DHT22;8517;53.546;10.104;2023-10-31T14:40:24;12.50;99.90
11221;DHT22;8517;53.546;10.104;2023-10-31T14:42:51;12.40;99.90
11221;DHT22;8517;53.546;10.104;2023-10-31T14:45:18;12.30;99.90
11221;DHT22;8517;53.546;10.104;2023-10-31T14:47:45;12.30;99.90
11221;DHT22;8517;53.546;10.104;2023-10-31T14:50:12;12.20;99.90
11221;DHT22;8517;53.546;10.104;2023-10-31T14:52:40;12.10;99.90
11221;DHT22;8517;53.546;10.104;2023-10-31T14:55:08;12.00;99.90
11221;DHT22;8517;53.546;10.104;2023-10-31T14:57:35;11.90;99.90
11221;DHT22;8517;53.546;10.104;2023-10-31T15:00:02;11.90;99.90
11221;DHT22;8517;53.546;10.104;2023-10-31T15:02:29;11.80;99.90
11221;DHT22;8517;53.546;10.104;2023-10-31T15:04:56;11.80;99.90
11221;DHT22;8517;53.546;10.104;2023-10-31T15:07:22;11.70;99.90
11221;DHT22;8517;53.546;10.104;2023-10-31T15:09:50;11.60;99.90
11221;DHT22;8517;53.546;10.104;2023-10-31T15:12:17;11.60;99.90
11221;DHT22;8517;53.546;10.104;2023-10-31T15:14:44;11.50;99.90
11221;DHT22;8517;53.546;10.104;2023-10-31T15:17:11;11.40;99.90
11221;DHT22;8517;53.546;10.104;2023-10-31T15:19:38;11.40;99.90
11221;DHT22;8517;53.546;10.104;2023-10-31T15:22:04;11.30;99.90
11221;DHT22;8517;53.546;10.104;2023-10-31T15:24:31;11.30;99.90
11221;DHT22;8517;53.546;10.104;2023-10-31T15:27:00;11.20;99.90
11221;DHT22;8517;53.546;10.104;2023-10-31T15:29:27;11.20;99.90
11221;DHT22;8517;53.546;10.104;2023-10-31T15:31:54;11.20;99.90